createdAt,value
2018-03-17T00:00:52.570Z,4.83
2018-03-17T00:03:18.922Z,5.03
2018-03-17T00:05:45.272Z,5.40
2018-03-17T00:08:11.648Z,4.73
2018-03-17T00:10:37.985Z,4.80
2018-03-17T00:13:04.382Z,5.07
2018-03-17T00:15:30.766Z,5.03
2018-03-17T00:17:57.140Z,4.87
2018-03-17T00:20:23.547Z,4.60
2018-03-17T00:22:49.874Z,4.40
2018-03-17T00:25:16.272Z,4.33
2018-03-17T00:27:42.607Z,4.60
2018-03-17T00:30:09.009Z,4.83
2018-03-17T00:32:35.341Z,4.60
2018-03-17T00:35:01.713Z,4.20
2018-03-17T00:37:28.073Z,4.73
2018-03-17T00:39:54.400Z,4.50
2018-03-17T00:42:20.784Z,4.50
2018-03-17T00:44:47.135Z,4.47
2018-03-17T00:47:13.509Z,3.97
2018-03-17T00:49:39.841Z,4.17
2018-03-17T00:52:06.230Z,4.20
2018-03-17T00:54:32.606Z,4.47
2018-03-17T00:56:59.003Z,4.10
2018-03-17T00:59:25.355Z,4.33
2018-03-17T01:01:51.696Z,4.63
2018-03-17T01:04:18.085Z,3.90
2018-03-17T01:06:44.407Z,4.23
2018-03-17T01:09:10.738Z,4.10
2018-03-17T01:11:37.086Z,4.17
2018-03-17T01:14:03.482Z,4.47
2018-03-17T01:16:29.813Z,4.47
2018-03-17T01:18:56.197Z,3.90
2018-03-17T01:21:22.568Z,4.00
2018-03-17T01:23:48.961Z,4.50
2018-03-17T01:26:15.362Z,4.37
2018-03-17T01:28:41.690Z,4.27
2018-03-17T01:31:08.054Z,4.23
2018-03-17T01:33:34.387Z,4.00
2018-03-17T01:36:00.752Z,4.00
2018-03-17T01:38:27.085Z,3.90
2018-03-17T01:40:53.467Z,4.00
2018-03-17T01:43:19.895Z,3.73
2018-03-17T01:45:46.256Z,4.27
2018-03-17T01:48:12.646Z,3.90
2018-03-17T01:50:38.972Z,3.70
2018-03-17T01:53:05.335Z,4.00
2018-03-17T01:55:31.664Z,3.63
2018-03-17T01:57:58.035Z,3.70
2018-03-17T02:00:24.431Z,3.70
2018-03-17T02:02:50.883Z,3.53
2018-03-17T02:05:17.250Z,3.60
2018-03-17T02:07:43.637Z,3.97
2018-03-17T02:10:09.960Z,3.40
2018-03-17T02:12:36.324Z,4.17
2018-03-17T02:15:02.665Z,3.93
2018-03-17T02:17:29.164Z,3.73
2018-03-17T02:19:55.547Z,3.70
2018-03-17T02:22:21.961Z,3.60
2018-03-17T02:24:48.296Z,3.83
2018-03-17T02:27:14.634Z,3.30
2018-03-17T02:29:41.019Z,3.53
2018-03-17T02:32:07.358Z,3.60
2018-03-17T02:34:33.683Z,3.47
2018-03-17T02:37:00.047Z,3.47
2018-03-17T02:39:26.434Z,3.60
2018-03-17T02:41:52.799Z,4.10
2018-03-17T02:44:19.304Z,3.30
2018-03-17T02:46:45.686Z,3.80
2018-03-17T02:49:12.061Z,3.60
2018-03-17T02:51:38.390Z,3.60
2018-03-17T02:54:04.729Z,4.07
2018-03-17T02:56:31.168Z,3.67
2018-03-17T02:58:57.546Z,3.47
2018-03-17T03:01:23.893Z,3.60
2018-03-17T03:03:50.307Z,3.27
2018-03-17T03:06:16.653Z,4.17
2018-03-17T03:08:42.988Z,3.53
2018-03-17T03:11:09.409Z,3.47
2018-03-17T03:13:35.772Z,3.53
2018-03-17T03:16:02.161Z,3.37
2018-03-17T03:18:28.509Z,3.53
2018-03-17T03:20:54.864Z,3.10
2018-03-17T03:23:21.205Z,2.80
2018-03-17T03:25:47.554Z,3.50
2018-03-17T03:28:13.890Z,3.53
2018-03-17T03:30:40.227Z,4.03
2018-03-17T03:33:06.591Z,3.83
2018-03-17T03:35:32.938Z,3.40
2018-03-17T03:37:59.289Z,3.47
2018-03-17T03:40:25.697Z,3.40
2018-03-17T03:42:52.173Z,3.30
2018-03-17T03:45:18.548Z,3.60
2018-03-17T03:47:44.990Z,3.30
2018-03-17T03:50:11.368Z,2.80
2018-03-17T03:52:37.710Z,3.10
2018-03-17T03:55:04.105Z,3.40
2018-03-17T03:57:30.446Z,3.30
2018-03-17T03:59:56.793Z,3.20
2018-03-17T04:02:23.217Z,3.50
2018-03-17T04:04:49.557Z,3.30
2018-03-17T04:07:15.985Z,3.20
2018-03-17T04:09:42.344Z,3.30
2018-03-17T04:12:08.726Z,3.30
2018-03-17T04:14:35.068Z,3.30
2018-03-17T04:17:01.503Z,3.07
2018-03-17T04:19:27.915Z,3.23
2018-03-17T04:21:54.230Z,2.97
2018-03-17T04:24:20.567Z,3.00
2018-03-17T04:26:46.923Z,3.20
2018-03-17T04:29:13.237Z,2.97
2018-03-17T04:31:39.596Z,2.87
2018-03-17T04:34:05.964Z,3.00
2018-03-17T04:36:32.337Z,3.10
2018-03-17T04:38:58.706Z,3.00
2018-03-17T04:41:25.052Z,3.23
2018-03-17T04:43:51.391Z,2.87
2018-03-17T04:46:17.717Z,2.90
2018-03-17T04:48:44.073Z,2.73
2018-03-17T04:51:10.410Z,3.00
2018-03-17T04:53:36.736Z,3.07
2018-03-17T04:56:03.066Z,2.87
2018-03-17T04:58:29.419Z,3.10
2018-03-17T05:00:55.786Z,3.43
2018-03-17T05:03:22.153Z,2.97
2018-03-17T05:05:48.482Z,2.80
2018-03-17T05:08:14.813Z,2.80
2018-03-17T05:10:41.182Z,3.43
2018-03-17T05:13:07.515Z,3.30
2018-03-17T05:15:33.892Z,2.70
2018-03-17T05:18:00.264Z,3.07
2018-03-17T05:20:26.604Z,2.97
2018-03-17T05:22:53.067Z,3.10
2018-03-17T05:25:19.418Z,3.30
2018-03-17T05:27:45.845Z,3.10
2018-03-17T05:30:12.216Z,3.00
2018-03-17T05:32:38.534Z,3.17
2018-03-17T05:35:04.931Z,3.20
2018-03-17T05:37:31.253Z,3.27
2018-03-17T05:39:57.605Z,2.73
2018-03-17T05:42:23.950Z,3.17
2018-03-17T05:44:50.423Z,3.10
2018-03-17T05:47:16.759Z,2.93
2018-03-17T05:49:43.095Z,3.40
2018-03-17T05:52:09.407Z,3.17
2018-03-17T05:54:35.792Z,2.80
2018-03-17T05:57:02.135Z,3.20
2018-03-17T05:59:28.453Z,3.20
2018-03-17T06:01:54.922Z,3.07
2018-03-17T06:04:21.369Z,3.10
2018-03-17T06:06:47.701Z,2.83
2018-03-17T06:09:14.069Z,3.57
2018-03-17T06:11:40.420Z,3.13
2018-03-17T06:14:06.805Z,2.87
2018-03-17T06:16:33.156Z,3.20
2018-03-17T06:18:59.490Z,2.83
2018-03-17T06:21:25.830Z,2.80
2018-03-17T06:23:52.255Z,3.20
2018-03-17T06:26:18.636Z,3.27
2018-03-17T06:28:45.010Z,2.70
2018-03-17T06:31:11.345Z,3.10
2018-03-17T06:33:37.675Z,2.97
2018-03-17T06:36:04.075Z,3.30
2018-03-17T06:38:30.414Z,2.77
2018-03-17T06:40:56.762Z,3.20
2018-03-17T06:43:23.110Z,3.20
2018-03-17T06:45:49.446Z,2.70
2018-03-17T06:48:15.805Z,2.87
2018-03-17T06:50:42.129Z,2.60
2018-03-17T06:53:08.489Z,2.73
2018-03-17T06:55:34.834Z,2.83
2018-03-17T06:58:01.192Z,3.00
2018-03-17T07:00:27.534Z,2.70
2018-03-17T07:02:54.025Z,2.80
2018-03-17T07:05:20.682Z,2.90
2018-03-17T07:07:47.005Z,3.07
2018-03-17T07:10:13.334Z,2.77
2018-03-17T07:12:39.670Z,2.80
2018-03-17T07:15:06.001Z,2.83
2018-03-17T07:17:32.381Z,3.00
2018-03-17T07:19:58.713Z,2.77
2018-03-17T07:22:25.039Z,2.60
2018-03-17T07:24:51.434Z,2.80
2018-03-17T07:27:17.774Z,2.60
2018-03-17T07:29:44.137Z,2.67
2018-03-17T07:32:10.461Z,3.43
2018-03-17T07:34:36.786Z,3.20
2018-03-17T07:37:03.172Z,3.07
2018-03-17T07:39:29.489Z,4.43
2018-03-17T07:41:55.807Z,3.80
2018-03-17T07:44:22.185Z,2.90
2018-03-17T07:46:48.517Z,3.40
2018-03-17T07:49:14.921Z,3.20
2018-03-17T07:51:41.312Z,3.07
2018-03-17T07:54:07.698Z,6.00
2018-03-17T07:56:34.026Z,4.67
2018-03-17T07:59:00.467Z,5.87
2018-03-17T08:01:26.816Z,5.47
2018-03-17T08:03:53.201Z,5.60
2018-03-17T08:06:19.621Z,4.50
2018-03-17T08:08:45.986Z,4.00
2018-03-17T08:11:12.354Z,4.00
2018-03-17T08:13:38.707Z,5.20
2018-03-17T08:16:05.040Z,3.57
2018-03-17T08:18:31.370Z,3.10
2018-03-17T08:20:57.744Z,4.10
2018-03-17T08:23:24.159Z,4.80
2018-03-17T08:25:50.636Z,5.43
2018-03-17T08:28:17.632Z,5.57
2018-03-17T08:30:43.986Z,5.40
2018-03-17T08:33:10.357Z,3.93
2018-03-17T08:35:36.752Z,5.03
2018-03-17T08:38:03.106Z,5.00
2018-03-17T08:40:29.463Z,4.73
2018-03-17T08:42:55.834Z,6.70
2018-03-17T08:45:22.210Z,5.70
2018-03-17T08:47:48.570Z,3.80
2018-03-17T08:50:14.914Z,4.43
2018-03-17T08:52:41.258Z,5.53
2018-03-17T08:55:07.579Z,5.77
2018-03-17T08:57:33.919Z,3.87
2018-03-17T09:00:00.306Z,3.03
2018-03-17T09:02:26.683Z,4.57
2018-03-17T09:04:53.065Z,3.90
2018-03-17T09:07:19.493Z,5.37
2018-03-17T09:09:45.829Z,5.90
2018-03-17T09:12:12.255Z,3.60
2018-03-17T09:14:38.585Z,3.17
2018-03-17T09:17:04.985Z,4.43
2018-03-17T09:19:31.413Z,3.90
2018-03-17T09:21:57.738Z,7.13
2018-03-17T09:24:24.142Z,5.03
2018-03-17T09:26:50.534Z,4.17
2018-03-17T09:29:16.948Z,5.50
2018-03-17T09:31:43.266Z,4.63
2018-03-17T09:34:09.605Z,5.93
2018-03-17T09:36:36.002Z,5.00
2018-03-17T09:39:02.378Z,4.30
2018-03-17T09:41:28.767Z,6.63
2018-03-17T09:43:55.107Z,6.70
2018-03-17T09:46:21.466Z,3.20
2018-03-17T09:48:47.915Z,4.07
2018-03-17T09:51:14.241Z,6.00
2018-03-17T09:53:40.621Z,5.23
2018-03-17T09:56:06.950Z,4.13
2018-03-17T09:58:33.367Z,5.27
2018-03-17T10:00:59.690Z,7.10
2018-03-17T10:03:26.047Z,5.27
2018-03-17T10:05:52.405Z,6.30
2018-03-17T10:08:18.779Z,4.17
2018-03-17T10:10:45.373Z,6.13
2018-03-17T10:13:11.727Z,6.20
2018-03-17T10:15:38.090Z,5.47
2018-03-17T10:18:04.445Z,5.47
2018-03-17T10:20:30.817Z,8.03
2018-03-17T10:22:57.192Z,4.13
2018-03-17T10:25:23.572Z,4.17
2018-03-17T10:27:49.893Z,4.83
2018-03-17T10:30:16.270Z,3.90
2018-03-17T10:32:42.621Z,4.77
2018-03-17T10:35:08.988Z,5.70
2018-03-17T10:37:35.412Z,6.50
2018-03-17T10:40:01.772Z,5.87
2018-03-17T10:42:28.117Z,7.13
2018-03-17T10:44:54.482Z,4.33
2018-03-17T10:47:20.890Z,5.07
2018-03-17T10:49:47.241Z,6.73
2018-03-17T10:52:13.631Z,5.13
2018-03-17T10:54:39.992Z,4.20
2018-03-17T10:57:06.357Z,5.10
2018-03-17T10:59:32.678Z,4.63
2018-03-17T11:01:59.045Z,5.87
2018-03-17T11:04:25.369Z,6.60
2018-03-17T11:06:51.758Z,4.93
2018-03-17T11:09:18.126Z,4.93
2018-03-17T11:11:44.511Z,4.73
2018-03-17T11:14:10.894Z,5.60
2018-03-17T11:16:37.290Z,7.03
2018-03-17T11:19:03.634Z,6.13
2018-03-17T11:21:30.035Z,5.97
2018-03-17T11:23:56.366Z,5.03
2018-03-17T11:26:22.773Z,5.23
2018-03-17T11:28:49.135Z,4.87
2018-03-17T11:31:15.509Z,4.83
2018-03-17T11:33:41.879Z,4.63
2018-03-17T11:36:08.273Z,3.57
2018-03-17T11:38:34.597Z,6.97
2018-03-17T11:41:00.995Z,5.27
2018-03-17T11:43:27.325Z,7.30
2018-03-17T11:45:53.733Z,3.73
2018-03-17T11:48:20.102Z,3.37
2018-03-17T11:50:46.513Z,5.00
2018-03-17T11:53:12.833Z,3.60
2018-03-17T11:55:39.246Z,4.00
2018-03-17T11:58:05.585Z,3.37
2018-03-17T12:00:31.990Z,3.30
2018-03-17T12:02:58.315Z,5.10
2018-03-17T12:05:24.706Z,3.90
2018-03-17T12:07:51.135Z,2.87
2018-03-17T12:10:17.470Z,4.07
2018-03-17T12:12:43.846Z,3.40
2018-03-17T12:15:10.239Z,4.70
2018-03-17T12:17:36.627Z,4.53
2018-03-17T12:20:03.019Z,3.43
2018-03-17T12:22:29.391Z,3.43
2018-03-17T12:24:55.766Z,3.40
2018-03-17T12:27:22.638Z,3.40
2018-03-17T12:29:49.003Z,5.30
2018-03-17T12:32:15.350Z,4.00
2018-03-17T12:34:42.398Z,5.37
2018-03-17T12:37:08.716Z,3.00
2018-03-17T12:39:35.050Z,2.07
2018-03-17T12:42:01.503Z,4.37
2018-03-17T12:44:27.835Z,4.20
2018-03-17T12:46:54.197Z,4.97
2018-03-17T12:49:20.640Z,4.30
2018-03-17T12:51:47.010Z,2.63
2018-03-17T12:54:13.384Z,2.30
2018-03-17T12:56:39.722Z,4.03
2018-03-17T12:59:06.124Z,3.27
2018-03-17T13:01:32.516Z,3.00
2018-03-17T13:03:58.887Z,2.70
2018-03-17T13:06:25.261Z,4.77
2018-03-17T13:08:51.654Z,3.80
2018-03-17T13:11:18.022Z,4.63
2018-03-17T13:13:44.337Z,2.80
2018-03-17T13:16:10.657Z,3.37
2018-03-17T13:18:36.987Z,2.63
2018-03-17T13:21:03.347Z,3.60
2018-03-17T13:23:29.679Z,2.47
2018-03-17T13:25:56.039Z,2.93
2018-03-17T13:28:22.366Z,3.17
2018-03-17T13:30:48.727Z,4.77
2018-03-17T13:33:15.060Z,2.37
2018-03-17T13:35:41.443Z,4.43
2018-03-17T13:38:07.786Z,2.57
2018-03-17T13:40:34.160Z,2.83
2018-03-17T13:43:00.491Z,2.17
2018-03-17T13:45:26.862Z,2.63
2018-03-17T13:47:53.206Z,2.33
2018-03-17T13:50:19.532Z,2.37
2018-03-17T13:52:45.853Z,2.50
2018-03-17T13:55:12.214Z,2.27
2018-03-17T13:57:38.531Z,2.30
2018-03-17T14:00:04.914Z,2.73
2018-03-17T14:02:31.323Z,2.70
2018-03-17T14:04:57.673Z,3.90
2018-03-17T14:07:24.071Z,1.90
2018-03-17T14:09:50.398Z,2.10
2018-03-17T14:12:16.767Z,2.10
2018-03-17T14:14:43.117Z,4.10
2018-03-17T14:17:09.556Z,1.70
2018-03-17T14:19:35.858Z,2.70
2018-03-17T14:22:02.494Z,2.30
2018-03-17T14:24:28.883Z,1.77
2018-03-17T14:26:55.223Z,3.40
2018-03-17T14:29:21.614Z,2.00
2018-03-17T14:31:47.967Z,2.10
2018-03-17T14:34:14.352Z,1.60
2018-03-17T14:36:40.752Z,1.83
2018-03-17T14:39:07.086Z,1.83
2018-03-17T14:41:33.422Z,1.77
2018-03-17T14:44:00.045Z,1.50
2018-03-17T14:46:26.390Z,2.43
2018-03-17T14:48:52.817Z,2.57
2018-03-17T14:51:19.207Z,1.83
2018-03-17T14:53:45.614Z,1.73
2018-03-17T14:56:12.022Z,2.27
2018-03-17T14:58:38.362Z,1.67
2018-03-17T15:01:04.744Z,2.13
2018-03-17T15:03:31.130Z,1.80
2018-03-17T15:05:57.464Z,1.60
2018-03-17T15:08:23.798Z,2.23
2018-03-17T15:10:51.175Z,1.47
2018-03-17T15:13:17.594Z,2.27
2018-03-17T15:15:43.932Z,1.70
2018-03-17T15:18:10.318Z,1.97
2018-03-17T15:20:36.698Z,2.63
2018-03-17T15:23:03.053Z,2.10
2018-03-17T15:25:30.064Z,1.97
2018-03-17T15:27:56.441Z,2.30
2018-03-17T15:30:22.836Z,2.93
2018-03-17T15:32:49.198Z,2.73
2018-03-17T15:35:15.570Z,2.83
2018-03-17T15:37:41.931Z,1.53
2018-03-17T15:40:08.253Z,1.73
2018-03-17T15:42:34.586Z,1.97
2018-03-17T15:45:00.919Z,2.07
2018-03-17T15:47:27.253Z,2.37
2018-03-17T15:49:53.630Z,1.60
2018-03-17T15:52:19.991Z,2.67
2018-03-17T15:54:46.392Z,2.07
2018-03-17T15:57:12.740Z,2.13
2018-03-17T15:59:39.391Z,2.10
2018-03-17T16:02:05.758Z,1.77
2018-03-17T16:04:32.164Z,1.97
2018-03-17T16:06:58.495Z,2.17
2018-03-17T16:09:24.905Z,1.70
2018-03-17T16:11:51.313Z,2.90
2018-03-17T16:14:17.674Z,1.73
2018-03-17T16:16:44.042Z,1.67
2018-03-17T16:19:10.453Z,2.70
2018-03-17T16:21:38.308Z,1.60
2018-03-17T16:24:04.638Z,1.93
2018-03-17T16:26:30.966Z,1.80
2018-03-17T16:28:57.564Z,1.90
2018-03-17T16:31:23.894Z,2.87
2018-03-17T16:33:50.274Z,1.77
2018-03-17T16:36:16.609Z,2.47
2018-03-17T16:38:42.945Z,2.50
2018-03-17T16:41:09.276Z,2.57
2018-03-17T16:43:35.642Z,1.80
2018-03-17T16:46:02.052Z,2.27
2018-03-17T16:48:28.379Z,2.07
2018-03-17T16:50:54.733Z,1.80
2018-03-17T16:53:21.292Z,2.37
2018-03-17T16:55:47.706Z,1.70
2018-03-17T16:58:14.034Z,2.13
2018-03-17T17:00:40.403Z,1.93
2018-03-17T17:03:06.718Z,2.40
2018-03-17T17:05:33.101Z,3.63
2018-03-17T17:07:59.494Z,1.87
2018-03-17T17:10:25.824Z,1.60
2018-03-17T17:12:52.146Z,1.63
2018-03-17T17:15:18.478Z,2.20
2018-03-17T17:17:44.834Z,1.93
2018-03-17T17:20:11.166Z,1.80
2018-03-17T17:22:37.536Z,1.50
2018-03-17T17:25:03.903Z,2.00
2018-03-17T17:27:30.290Z,2.40
2018-03-17T17:29:56.610Z,2.23
2018-03-17T17:32:22.938Z,1.83
2018-03-17T17:34:49.405Z,2.00
2018-03-17T17:37:15.749Z,1.53
2018-03-17T17:39:42.146Z,1.40
2018-03-17T17:42:08.467Z,2.67
2018-03-17T17:44:34.826Z,2.33
2018-03-17T17:47:01.142Z,2.47
2018-03-17T17:49:27.458Z,2.00
2018-03-17T17:51:53.831Z,1.70
2018-03-17T17:54:20.223Z,2.07
2018-03-17T17:56:48.606Z,2.20
2018-03-17T17:59:14.976Z,1.77
2018-03-17T18:01:41.318Z,1.50
2018-03-17T18:04:07.662Z,2.10
2018-03-17T18:06:33.991Z,2.73
2018-03-17T18:09:00.349Z,2.90
2018-03-17T18:11:26.675Z,2.17
2018-03-17T18:13:53.038Z,2.53
2018-03-17T18:16:19.492Z,1.50
2018-03-17T18:18:45.816Z,2.20
2018-03-17T18:21:12.198Z,1.87
2018-03-17T18:23:38.518Z,2.00
2018-03-17T18:26:04.849Z,2.13
2018-03-17T18:28:31.218Z,1.60
2018-03-17T18:30:57.561Z,2.30
2018-03-17T18:33:23.915Z,2.23
2018-03-17T18:35:50.284Z,2.23
2018-03-17T18:38:16.650Z,1.90
2018-03-17T18:40:42.985Z,2.43
2018-03-17T18:43:09.318Z,2.33
2018-03-17T18:45:35.638Z,1.77
2018-03-17T18:48:01.966Z,2.20
2018-03-17T18:50:28.302Z,1.90
2018-03-17T18:52:54.676Z,2.10
2018-03-17T18:55:21.047Z,1.90
2018-03-17T18:57:47.409Z,2.03
2018-03-17T19:00:13.734Z,2.23
2018-03-17T19:02:40.076Z,2.63
2018-03-17T19:05:06.476Z,2.37
2018-03-17T19:07:32.967Z,1.70
2018-03-17T19:09:59.297Z,1.70
2018-03-17T19:12:25.640Z,2.33
2018-03-17T19:14:51.994Z,2.90
2018-03-17T19:17:18.390Z,1.73
2018-03-17T19:19:44.836Z,1.80
2018-03-17T19:22:11.172Z,2.97
2018-03-17T19:24:37.503Z,2.70
2018-03-17T19:27:03.882Z,1.70
2018-03-17T19:29:30.210Z,2.10
2018-03-17T19:31:56.546Z,1.87
2018-03-17T19:34:22.937Z,2.17
2018-03-17T19:36:49.322Z,1.70
2018-03-17T19:39:15.654Z,2.30
2018-03-17T19:41:42.028Z,1.90
2018-03-17T19:44:08.399Z,2.47
2018-03-17T19:46:34.733Z,2.27
2018-03-17T19:49:01.104Z,2.33
2018-03-17T19:51:27.505Z,2.77
2018-03-17T19:53:53.846Z,2.23
2018-03-17T19:56:20.190Z,2.07
2018-03-17T19:58:46.575Z,2.10
2018-03-17T20:01:12.945Z,2.67
2018-03-17T20:03:39.350Z,2.00
2018-03-17T20:06:05.696Z,1.83
2018-03-17T20:08:32.042Z,2.90
2018-03-17T20:10:58.402Z,2.30
2018-03-17T20:13:24.747Z,2.37
2018-03-17T20:15:51.135Z,2.97
2018-03-17T20:18:17.463Z,2.63
2018-03-17T20:20:43.806Z,3.63
2018-03-17T20:23:10.186Z,1.80
2018-03-17T20:25:36.538Z,2.10
2018-03-17T20:28:02.865Z,1.60
2018-03-17T20:30:29.206Z,2.37
2018-03-17T20:32:55.536Z,3.23
2018-03-17T20:35:21.877Z,2.03
2018-03-17T20:37:48.274Z,2.33
2018-03-17T20:40:14.614Z,3.23
2018-03-17T20:42:40.992Z,2.63
2018-03-17T20:45:07.316Z,2.00
2018-03-17T20:47:33.677Z,4.33
2018-03-17T20:50:00.035Z,1.60
2018-03-17T20:52:26.378Z,1.90
2018-03-17T20:54:52.766Z,1.87
2018-03-17T20:57:19.138Z,2.37
2018-03-17T20:59:45.475Z,2.23
2018-03-17T21:02:11.850Z,2.60
2018-03-17T21:04:38.302Z,2.17
2018-03-17T21:07:04.641Z,2.17
2018-03-17T21:09:31.012Z,2.63
2018-03-17T21:11:57.341Z,2.90
2018-03-17T21:14:23.671Z,3.53
2018-03-17T21:16:50.067Z,3.90
2018-03-17T21:19:16.465Z,2.10
2018-03-17T21:21:42.876Z,2.30
2018-03-17T21:24:09.251Z,2.50
2018-03-17T21:26:35.653Z,2.73
2018-03-17T21:29:01.993Z,1.70
2018-03-17T21:31:28.414Z,2.83
2018-03-17T21:33:54.790Z,2.03
2018-03-17T21:36:21.170Z,1.97
2018-03-17T21:38:47.515Z,1.70
2018-03-17T21:41:13.906Z,2.70
2018-03-17T21:43:40.225Z,3.67
2018-03-17T21:46:06.554Z,2.90
2018-03-17T21:48:32.926Z,1.93
2018-03-17T21:50:59.264Z,3.07
2018-03-17T21:53:25.648Z,2.20
2018-03-17T21:55:52.038Z,2.97
2018-03-17T21:58:18.393Z,3.10
2018-03-17T22:00:44.822Z,1.70
2018-03-17T22:03:11.187Z,5.00
2018-03-17T22:05:37.515Z,2.60
2018-03-17T22:08:03.838Z,3.03
2018-03-17T22:10:30.205Z,3.47
2018-03-17T22:12:56.537Z,2.97
2018-03-17T22:15:22.876Z,2.37
2018-03-17T22:17:49.296Z,3.93
2018-03-17T22:20:15.704Z,2.67
2018-03-17T22:22:42.088Z,2.60
2018-03-17T22:25:08.435Z,3.63
2018-03-17T22:27:34.806Z,3.47
2018-03-17T22:30:01.139Z,3.20
2018-03-17T22:32:27.470Z,2.50
2018-03-17T22:34:53.838Z,3.60
2018-03-17T22:37:20.254Z,2.73
2018-03-17T22:39:46.605Z,5.13
2018-03-17T22:42:12.979Z,2.90
2018-03-17T22:44:39.365Z,2.90
2018-03-17T22:47:05.730Z,3.50
2018-03-17T22:49:32.075Z,3.80
2018-03-17T22:51:58.406Z,3.17
2018-03-17T22:54:24.756Z,1.70
2018-03-17T22:56:51.134Z,2.40
2018-03-17T22:59:17.535Z,4.27
2018-03-17T23:01:43.864Z,3.53
2018-03-17T23:04:10.204Z,5.77
2018-03-17T23:06:36.544Z,2.73
2018-03-17T23:09:02.942Z,2.97
2018-03-17T23:11:29.335Z,3.17
2018-03-17T23:13:55.679Z,3.30
2018-03-17T23:16:23.489Z,2.27
2018-03-17T23:18:49.841Z,2.43
2018-03-17T23:21:16.213Z,4.73
2018-03-17T23:23:42.575Z,3.73
2018-03-17T23:26:08.911Z,4.10
2018-03-17T23:28:35.289Z,3.13
2018-03-17T23:31:01.641Z,5.07
2018-03-17T23:33:27.970Z,2.80
2018-03-17T23:35:54.319Z,5.37
2018-03-17T23:38:20.656Z,3.00
2018-03-17T23:40:47.044Z,3.33
2018-03-17T23:43:13.414Z,2.67
2018-03-17T23:45:39.747Z,4.43
2018-03-17T23:48:06.107Z,2.97
2018-03-17T23:50:32.439Z,4.13
2018-03-17T23:52:58.830Z,4.23
2018-03-17T23:55:25.216Z,3.73
2018-03-17T23:57:51.577Z,5.97
